createdAt,value
2017-08-04T00:00:08.472Z,25.38
2017-08-04T00:01:08.084Z,25.33
2017-08-04T00:02:08.189Z,25.33
2017-08-04T00:03:08.657Z,25.29
2017-08-04T00:04:08.162Z,25.29
2017-08-04T00:05:08.508Z,25.23
2017-08-04T00:06:08.535Z,25.25
2017-08-04T00:07:08.252Z,25.18
2017-08-04T00:08:08.509Z,25.22
2017-08-04T00:09:08.301Z,25.21
2017-08-04T00:10:08.322Z,25.25
2017-08-04T00:11:08.673Z,25.22
2017-08-04T00:12:08.805Z,25.14
2017-08-04T00:13:08.726Z,25.21
2017-08-04T00:14:08.813Z,25.16
2017-08-04T00:15:08.884Z,25.21
2017-08-04T00:16:08.485Z,25.17
2017-08-04T00:17:08.829Z,25.13
2017-08-04T00:18:08.988Z,25.1
2017-08-04T00:19:08.900Z,25.16
2017-08-04T00:20:08.988Z,25.1
2017-08-04T00:21:09.013Z,25.13
2017-08-04T00:22:08.655Z,25.13
2017-08-04T00:23:09.113Z,25.21
2017-08-04T00:24:09.017Z,25.1
2017-08-04T00:25:09.057Z,25.1
2017-08-04T00:26:09.079Z,25.1
2017-08-04T00:27:08.879Z,25.13
2017-08-04T00:28:09.139Z,25.06
2017-08-04T00:29:09.163Z,25.08
2017-08-04T00:30:09.194Z,25.04
2017-08-04T00:31:09.376Z,25.13
2017-08-04T00:32:09.243Z,24.99
2017-08-04T00:33:09.273Z,24.98
2017-08-04T00:34:09.031Z,25.07
2017-08-04T00:35:09.019Z,24.96
2017-08-04T00:36:09.350Z,24.96
2017-08-04T00:37:09.377Z,24.96
2017-08-04T00:38:09.409Z,24.99
2017-08-04T00:39:09.430Z,24.99
2017-08-04T00:40:09.463Z,24.99
2017-08-04T00:41:09.489Z,24.95
2017-08-04T00:42:08.931Z,24.95
2017-08-04T00:43:09.653Z,24.89
2017-08-04T00:44:09.254Z,24.91
2017-08-04T00:45:09.382Z,24.84
2017-08-04T00:46:09.621Z,24.86
2017-08-04T00:47:09.331Z,24.89
2017-08-04T00:48:09.678Z,24.84
2017-08-04T00:49:09.700Z,24.99
2017-08-04T00:50:09.728Z,24.88
2017-08-04T00:51:09.756Z,24.88
2017-08-04T00:52:09.788Z,24.84
2017-08-04T00:53:09.805Z,24.88
2017-08-04T00:54:09.523Z,24.84
2017-08-04T00:55:09.873Z,24.84
2017-08-04T00:56:09.571Z,24.86
2017-08-04T00:57:09.607Z,24.85
2017-08-04T00:58:09.943Z,24.84
2017-08-04T00:59:09.978Z,24.84
2017-08-04T01:00:10.017Z,24.8
2017-08-04T01:01:09.704Z,24.74
2017-08-04T01:02:09.732Z,24.81
2017-08-04T01:03:10.076Z,24.74
2017-08-04T01:04:09.792Z,24.74
2017-08-04T01:05:09.842Z,24.78
2017-08-04T01:06:10.161Z,24.76
2017-08-04T01:07:10.184Z,24.81
2017-08-04T01:08:10.213Z,24.73
2017-08-04T01:09:10.236Z,24.78
2017-08-04T01:10:10.263Z,24.76
2017-08-04T01:11:10.299Z,24.69
2017-08-04T01:12:10.001Z,24.69
2017-08-04T01:13:10.035Z,24.73
2017-08-04T01:14:10.374Z,24.61
2017-08-04T01:15:10.123Z,24.7
2017-08-04T01:16:10.110Z,24.63
2017-08-04T01:17:10.146Z,24.6
2017-08-04T01:18:10.164Z,24.7
2017-08-04T01:19:10.187Z,24.66
2017-08-04T01:20:10.213Z,24.61
2017-08-04T01:21:10.557Z,24.6
2017-08-04T01:22:10.268Z,24.61
2017-08-04T01:23:10.298Z,24.65
2017-08-04T01:24:10.641Z,24.66
2017-08-04T01:25:10.352Z,24.61
2017-08-04T01:26:10.058Z,24.63
2017-08-04T01:27:10.403Z,24.61
2017-08-04T01:28:10.751Z,24.5
2017-08-04T01:29:10.776Z,24.65
2017-08-04T01:30:10.816Z,24.57
2017-08-04T01:31:10.200Z,24.58
2017-08-04T01:32:10.532Z,24.58
2017-08-04T01:33:10.882Z,24.53
2017-08-04T01:34:10.920Z,24.55
2017-08-04T01:35:11.211Z,24.54
2017-08-04T01:36:10.644Z,24.54
2017-08-04T01:37:10.672Z,24.48
2017-08-04T01:38:11.292Z,24.54
2017-08-04T01:39:11.286Z,24.54
2017-08-04T01:40:11.150Z,24.54
2017-08-04T01:41:11.208Z,24.54
2017-08-04T01:42:11.143Z,24.53
2017-08-04T01:43:11.070Z,24.5
2017-08-04T01:44:11.189Z,24.53
2017-08-04T01:45:11.085Z,24.54
2017-08-04T01:46:11.224Z,24.48
2017-08-04T01:47:11.342Z,24.51
2017-08-04T01:48:11.373Z,24.51
2017-08-04T01:49:11.529Z,24.51
2017-08-04T01:50:11.110Z,24.45
2017-08-04T01:51:11.477Z,24.51
2017-08-04T01:52:11.541Z,24.43
2017-08-04T01:53:11.541Z,24.42
2017-08-04T01:54:11.435Z,24.43
2017-08-04T01:55:11.465Z,24.42
2017-08-04T01:56:11.174Z,24.42
2017-08-04T01:57:11.516Z,24.47
2017-08-04T01:58:11.673Z,24.47
2017-08-04T01:59:11.782Z,24.45
2017-08-04T02:00:11.594Z,24.51
2017-08-04T02:01:11.621Z,24.51
2017-08-04T02:02:11.656Z,24.48
2017-08-04T02:03:11.978Z,24.4
2017-08-04T02:04:11.713Z,24.45
2017-08-04T02:05:11.731Z,24.45
2017-08-04T02:06:11.831Z,24.42
2017-08-04T02:07:11.782Z,24.42
2017-08-04T02:08:11.842Z,24.38
2017-08-04T02:09:11.633Z,24.4
2017-08-04T02:10:11.865Z,24.39
2017-08-04T02:11:11.894Z,24.29
2017-08-04T02:12:11.714Z,24.28
2017-08-04T02:13:12.137Z,24.38
2017-08-04T02:14:11.973Z,24.36
2017-08-04T02:15:12.136Z,24.35
2017-08-04T02:16:11.818Z,24.24
2017-08-04T02:17:11.735Z,24.26
2017-08-04T02:18:12.273Z,24.3
2017-08-04T02:19:11.928Z,24.26
2017-08-04T02:20:11.901Z,24.24
2017-08-04T02:21:11.836Z,24.3
2017-08-04T02:22:11.861Z,24.29
2017-08-04T02:23:12.354Z,24.18
2017-08-04T02:24:12.341Z,24.21
2017-08-04T02:25:11.941Z,24.28
2017-08-04T02:26:12.185Z,24.2
2017-08-04T02:27:12.309Z,24.24
2017-08-04T02:28:12.355Z,24.23
2017-08-04T02:29:12.055Z,24.23
2017-08-04T02:30:12.072Z,24.24
2017-08-04T02:31:12.421Z,24.2
2017-08-04T02:32:12.442Z,24.17
2017-08-04T02:33:12.220Z,24.21
2017-08-04T02:34:12.597Z,24.18
2017-08-04T02:35:12.525Z,24.18
2017-08-04T02:36:12.553Z,24.11
2017-08-04T02:37:12.575Z,24.05
2017-08-04T02:38:12.610Z,24.14
2017-08-04T02:39:12.629Z,24.14
2017-08-04T02:40:12.658Z,24.03
2017-08-04T02:41:12.680Z,24.02
2017-08-04T02:42:12.715Z,24.11
2017-08-04T02:43:12.734Z,24.03
2017-08-04T02:44:12.439Z,24.11
2017-08-04T02:45:12.785Z,24.02
2017-08-04T02:46:12.496Z,24.06
2017-08-04T02:47:12.837Z,24.05
2017-08-04T02:48:12.864Z,24.03
2017-08-04T02:49:12.891Z,24.01
2017-08-04T02:50:12.923Z,24.05
2017-08-04T02:51:12.940Z,24.02
2017-08-04T02:52:12.967Z,24.03
2017-08-04T02:53:12.999Z,23.92
2017-08-04T02:54:13.022Z,23.88
2017-08-04T02:55:13.048Z,24.02
2017-08-04T02:56:13.205Z,23.95
2017-08-04T02:57:13.218Z,23.92
2017-08-04T02:58:12.927Z,23.93
2017-08-04T02:59:12.838Z,23.96
2017-08-04T03:00:13.181Z,23.88
2017-08-04T03:01:12.894Z,23.91
2017-08-04T03:02:12.931Z,23.87
2017-08-04T03:03:12.947Z,23.93
2017-08-04T03:04:12.973Z,23.92
2017-08-04T03:05:13.199Z,23.87
2017-08-04T03:06:13.016Z,23.88
2017-08-04T03:07:13.042Z,23.88
2017-08-04T03:08:13.068Z,23.91
2017-08-04T03:09:13.093Z,23.95
2017-08-04T03:10:13.444Z,23.87
2017-08-04T03:11:13.470Z,23.91
2017-08-04T03:12:13.176Z,23.91
2017-08-04T03:13:13.198Z,23.92
2017-08-04T03:14:13.545Z,23.83
2017-08-04T03:15:13.570Z,23.81
2017-08-04T03:16:13.281Z,23.81
2017-08-04T03:17:13.420Z,23.84
2017-08-04T03:18:13.772Z,23.87
2017-08-04T03:19:13.747Z,23.81
2017-08-04T03:20:13.829Z,23.78
2017-08-04T03:21:13.731Z,23.8
2017-08-04T03:22:13.755Z,23.74
2017-08-04T03:23:13.778Z,23.83
2017-08-04T03:24:13.812Z,23.83
2017-08-04T03:25:13.829Z,23.76
2017-08-04T03:26:13.543Z,23.77
2017-08-04T03:27:13.883Z,23.77
2017-08-04T03:28:14.095Z,23.81
2017-08-04T03:29:13.933Z,23.76
2017-08-04T03:30:13.647Z,23.81
2017-08-04T03:31:13.992Z,23.78
2017-08-04T03:32:14.018Z,23.81
2017-08-04T03:33:14.040Z,23.78
2017-08-04T03:34:13.748Z,23.71
2017-08-04T03:35:13.457Z,23.74
2017-08-04T03:36:14.324Z,23.71
2017-08-04T03:37:14.256Z,23.71
2017-08-04T03:38:13.853Z,23.77
2017-08-04T03:39:14.204Z,23.84
2017-08-04T03:40:13.994Z,23.8
2017-08-04T03:41:14.317Z,23.71
2017-08-04T03:42:14.275Z,23.74
2017-08-04T03:43:14.573Z,23.78
2017-08-04T03:44:28.982Z,23.68
2017-08-04T03:45:14.447Z,23.76
2017-08-04T03:46:14.060Z,23.65
2017-08-04T03:47:14.401Z,23.78
2017-08-04T03:48:14.453Z,23.74
2017-08-04T03:49:14.488Z,23.68
2017-08-04T03:50:14.604Z,23.74
2017-08-04T03:51:14.846Z,23.74
2017-08-04T03:52:14.622Z,23.69
2017-08-04T03:53:14.651Z,23.71
2017-08-04T03:54:14.680Z,23.71
2017-08-04T03:55:14.516Z,23.71
2017-08-04T03:56:14.438Z,23.62
2017-08-04T03:57:14.843Z,23.69
2017-08-04T03:58:14.210Z,23.68
2017-08-04T03:59:14.397Z,23.78
2017-08-04T04:00:14.978Z,23.69
2017-08-04T04:01:14.764Z,23.73
2017-08-04T04:02:14.796Z,23.69
2017-08-04T04:03:14.817Z,23.74
2017-08-04T04:04:14.537Z,23.71
2017-08-04T04:05:14.871Z,23.69
2017-08-04T04:06:15.031Z,23.66
2017-08-04T04:07:14.925Z,23.62
2017-08-04T04:08:14.947Z,23.68
2017-08-04T04:09:14.657Z,23.73
2017-08-04T04:10:15.002Z,23.68
2017-08-04T04:11:15.025Z,23.68
2017-08-04T04:12:15.053Z,23.65
2017-08-04T04:13:15.078Z,23.66
2017-08-04T04:14:14.907Z,23.66
2017-08-04T04:15:15.132Z,23.66
2017-08-04T04:16:15.155Z,23.63
2017-08-04T04:17:15.304Z,23.66
2017-08-04T04:18:14.890Z,23.61
2017-08-04T04:19:14.915Z,23.65
2017-08-04T04:20:15.261Z,23.62
2017-08-04T04:21:15.412Z,23.56
2017-08-04T04:22:15.308Z,23.59
2017-08-04T04:23:15.360Z,23.56
2017-08-04T04:24:15.487Z,23.65
2017-08-04T04:25:15.388Z,23.61
2017-08-04T04:26:15.421Z,23.62
2017-08-04T04:27:15.127Z,23.63
2017-08-04T04:28:15.469Z,23.62
2017-08-04T04:29:15.498Z,23.62
2017-08-04T04:30:15.514Z,23.66
2017-08-04T04:31:15.332Z,23.58
2017-08-04T04:32:15.568Z,23.63
2017-08-04T04:33:15.602Z,23.61
2017-08-04T04:34:15.314Z,23.65
2017-08-04T04:35:15.646Z,23.65
2017-08-04T04:36:15.765Z,23.59
2017-08-04T04:37:15.697Z,23.59
2017-08-04T04:38:15.723Z,23.63
2017-08-04T04:39:15.438Z,23.63
2017-08-04T04:40:15.772Z,23.61
2017-08-04T04:41:15.804Z,23.65
2017-08-04T04:42:15.825Z,23.65
2017-08-04T04:43:15.534Z,23.65
2017-08-04T04:44:15.560Z,23.63
2017-08-04T04:45:15.587Z,23.66
2017-08-04T04:46:15.608Z,23.62
2017-08-04T04:47:15.766Z,23.65
2017-08-04T04:48:15.987Z,23.62
2017-08-04T04:49:16.031Z,23.62
2017-08-04T04:50:15.718Z,23.59
2017-08-04T04:51:15.740Z,23.61
2017-08-04T04:52:15.773Z,23.62
2017-08-04T04:53:16.122Z,23.62
2017-08-04T04:54:16.133Z,23.68
2017-08-04T04:55:15.844Z,23.63
2017-08-04T04:56:16.191Z,23.63
2017-08-04T04:57:16.216Z,23.63
2017-08-04T04:58:15.920Z,23.66
2017-08-04T04:59:16.269Z,23.65
2017-08-04T05:00:16.289Z,23.65
2017-08-04T05:01:16.004Z,23.68
2017-08-04T05:02:16.363Z,23.68
2017-08-04T05:03:16.368Z,23.66
2017-08-04T05:04:16.532Z,23.66
2017-08-04T05:05:16.424Z,23.63
2017-08-04T05:06:16.443Z,23.69
2017-08-04T05:07:16.469Z,23.77
2017-08-04T05:08:16.499Z,23.71
2017-08-04T05:09:16.524Z,23.69
2017-08-04T05:10:16.569Z,23.66
2017-08-04T05:11:16.575Z,23.69
2017-08-04T05:12:16.284Z,23.71
2017-08-04T05:13:16.635Z,23.69
2017-08-04T05:14:16.665Z,23.69
2017-08-04T05:15:16.680Z,23.73
2017-08-04T05:16:16.709Z,23.74
2017-08-04T05:17:16.726Z,23.8
2017-08-04T05:18:16.766Z,23.74
2017-08-04T05:19:16.785Z,23.81
2017-08-04T05:20:16.807Z,23.84
2017-08-04T05:21:16.514Z,23.73
2017-08-04T05:22:16.542Z,23.76
2017-08-04T05:23:16.885Z,23.76
2017-08-04T05:24:16.918Z,23.87
2017-08-04T05:25:16.622Z,23.81
2017-08-04T05:26:16.968Z,23.93
2017-08-04T05:27:16.985Z,23.91
2017-08-04T05:28:17.015Z,23.87
2017-08-04T05:29:17.038Z,23.91
2017-08-04T05:30:17.066Z,23.96
2017-08-04T05:31:17.089Z,23.99
2017-08-04T05:32:17.120Z,23.95
2017-08-04T05:33:17.138Z,23.99
2017-08-04T05:34:17.163Z,23.98
2017-08-04T05:35:17.197Z,24.02
2017-08-04T05:36:17.226Z,23.99
2017-08-04T05:37:17.247Z,24.02
2017-08-04T05:38:17.270Z,24.06
2017-08-04T05:39:16.664Z,24.1
2017-08-04T05:40:17.004Z,24.11
2017-08-04T05:41:17.353Z,24.13
2017-08-04T05:42:17.372Z,24.08
2017-08-04T05:43:17.518Z,24.13
2017-08-04T05:44:17.424Z,24.14
2017-08-04T05:45:17.131Z,24.14
2017-08-04T05:46:17.166Z,24.17
2017-08-04T05:47:17.187Z,24.2
2017-08-04T05:48:17.217Z,24.2
2017-08-04T05:49:17.237Z,24.26
2017-08-04T05:50:17.581Z,24.21
2017-08-04T05:51:17.616Z,24.23
2017-08-04T05:52:17.635Z,24.28
2017-08-04T05:53:17.345Z,24.3
2017-08-04T05:54:17.691Z,24.29
2017-08-04T05:55:17.710Z,24.3
2017-08-04T05:56:17.736Z,24.39
2017-08-04T05:57:17.761Z,24.29
2017-08-04T05:58:17.787Z,24.4
2017-08-04T05:59:17.815Z,24.42
2017-08-04T06:00:17.841Z,24.39
2017-08-04T06:01:17.886Z,24.42
2017-08-04T06:02:17.893Z,24.53
2017-08-04T06:03:17.924Z,24.43
2017-08-04T06:04:17.947Z,24.39
2017-08-04T06:05:18.023Z,24.48
2017-08-04T06:06:17.678Z,24.47
2017-08-04T06:07:18.025Z,24.51
2017-08-04T06:08:18.054Z,24.54
2017-08-04T06:09:18.074Z,24.53
2017-08-04T06:10:18.102Z,24.58
2017-08-04T06:11:18.128Z,24.55
2017-08-04T06:12:17.520Z,24.45
2017-08-04T06:13:18.187Z,24.5
2017-08-04T06:14:17.921Z,24.5
2017-08-04T06:15:18.235Z,24.53
2017-08-04T06:16:17.943Z,24.57
2017-08-04T06:17:17.969Z,24.54
2017-08-04T06:18:18.312Z,24.54
2017-08-04T06:19:18.335Z,24.6
2017-08-04T06:20:18.370Z,24.57
2017-08-04T06:21:18.412Z,24.57
2017-08-04T06:22:18.418Z,24.6
2017-08-04T06:23:18.127Z,24.58
2017-08-04T06:24:18.471Z,24.6
2017-08-04T06:25:18.498Z,24.54
2017-08-04T06:26:18.525Z,24.65
2017-08-04T06:27:18.544Z,24.61
2017-08-04T06:28:18.575Z,24.66
2017-08-04T06:29:18.599Z,24.69
2017-08-04T06:30:18.637Z,24.61
2017-08-04T06:31:18.651Z,24.66
2017-08-04T06:32:18.361Z,24.7
2017-08-04T06:33:18.702Z,24.7
2017-08-04T06:34:18.411Z,24.74
2017-08-04T06:35:18.438Z,24.76
2017-08-04T06:36:18.789Z,24.81
2017-08-04T06:37:18.811Z,24.77
2017-08-04T06:38:18.834Z,24.69
2017-08-04T06:39:18.860Z,24.77
2017-08-04T06:40:18.254Z,24.85
2017-08-04T06:41:18.918Z,24.8
2017-08-04T06:42:18.943Z,24.89
2017-08-04T06:43:18.970Z,24.85
2017-08-04T06:44:19.011Z,24.84
2017-08-04T06:45:19.023Z,24.85
2017-08-04T06:46:18.735Z,24.92
2017-08-04T06:47:19.079Z,24.98
2017-08-04T06:48:19.097Z,24.93
2017-08-04T06:49:19.139Z,25.01
2017-08-04T06:50:19.455Z,25.04
2017-08-04T06:51:19.192Z,25.1
2017-08-04T06:52:19.218Z,25.04
2017-08-04T06:53:19.233Z,25.08
2017-08-04T06:54:19.260Z,25.08
2017-08-04T06:55:19.291Z,25.06
2017-08-04T06:56:19.309Z,25.14
2017-08-04T06:57:19.341Z,25.16
2017-08-04T06:58:19.366Z,25.07
2017-08-04T06:59:19.397Z,25.17
2017-08-04T07:00:19.416Z,25.16
2017-08-04T07:01:19.446Z,25.21
2017-08-04T07:02:19.469Z,25.22
2017-08-04T07:03:19.494Z,25.22
2017-08-04T07:04:19.526Z,25.18
2017-08-04T07:05:19.550Z,25.29
2017-08-04T07:06:19.255Z,25.25
2017-08-04T07:07:19.283Z,25.28
2017-08-04T07:08:19.632Z,25.26
2017-08-04T07:09:19.664Z,25.29
2017-08-04T07:10:19.682Z,25.29
2017-08-04T07:11:19.709Z,25.4
2017-08-04T07:12:19.736Z,25.46
2017-08-04T07:13:19.761Z,25.46
2017-08-04T07:14:19.787Z,25.44
2017-08-04T07:15:19.814Z,25.51
2017-08-04T07:16:19.528Z,25.54
2017-08-04T07:17:19.555Z,25.58
2017-08-04T07:18:19.899Z,25.55
2017-08-04T07:19:19.922Z,25.58
2017-08-04T07:20:19.948Z,25.58
2017-08-04T07:21:19.972Z,25.68
2017-08-04T07:22:20.002Z,25.65
2017-08-04T07:23:20.026Z,25.68
2017-08-04T07:24:20.055Z,25.72
2017-08-04T07:25:20.082Z,25.73
2017-08-04T07:26:20.122Z,25.73
2017-08-04T07:27:20.139Z,25.8
2017-08-04T07:28:20.159Z,25.81
2017-08-04T07:29:20.191Z,25.78
2017-08-04T07:30:20.213Z,25.81
2017-08-04T07:31:20.257Z,25.81
2017-08-04T07:32:20.271Z,25.93
2017-08-04T07:33:20.016Z,25.91
2017-08-04T07:34:20.327Z,25.96
2017-08-04T07:35:20.354Z,25.98
2017-08-04T07:36:20.060Z,25.96
2017-08-04T07:37:20.086Z,26.02
2017-08-04T07:38:20.112Z,25.96
2017-08-04T07:39:20.144Z,26.05
2017-08-04T07:40:20.170Z,26.07
2017-08-04T07:41:20.516Z,26.06
2017-08-04T07:42:20.551Z,26.1
2017-08-04T07:43:20.576Z,26.05
2017-08-04T07:44:20.277Z,26.07
2017-08-04T07:45:20.624Z,26.06
2017-08-04T07:46:20.646Z,26.13
2017-08-04T07:47:20.739Z,26.16
2017-08-04T07:48:20.720Z,26.16
2017-08-04T07:49:20.730Z,26.07
2017-08-04T07:50:20.438Z,26.07
2017-08-04T07:51:20.832Z,26.15
2017-08-04T07:52:20.811Z,26.09
2017-08-04T07:53:20.844Z,26.18
2017-08-04T07:54:20.876Z,26.18
2017-08-04T07:55:20.986Z,26.21
2017-08-04T07:56:20.605Z,26.23
2017-08-04T07:57:20.948Z,26.28
2017-08-04T07:58:20.695Z,26.21
2017-08-04T07:59:21.017Z,26.22
2017-08-04T08:00:21.026Z,26.33
2017-08-04T08:01:21.056Z,26.33
2017-08-04T08:02:21.092Z,26.26
2017-08-04T08:03:21.111Z,26.31
2017-08-04T08:04:21.134Z,26.34
2017-08-04T08:05:21.165Z,26.37
2017-08-04T08:06:21.206Z,26.36
2017-08-04T08:07:21.219Z,26.41
2017-08-04T08:08:21.247Z,26.37
2017-08-04T08:09:21.288Z,26.44
2017-08-04T08:10:21.299Z,26.44
2017-08-04T08:11:21.471Z,26.47
2017-08-04T08:12:21.446Z,26.48
2017-08-04T08:13:21.068Z,26.51
2017-08-04T08:14:21.415Z,26.47
2017-08-04T08:15:21.444Z,26.52
2017-08-04T08:16:21.462Z,26.58
2017-08-04T08:17:21.178Z,26.62
2017-08-04T08:18:21.524Z,26.63
2017-08-04T08:19:21.235Z,26.65
2017-08-04T08:20:21.644Z,26.73
2017-08-04T08:21:21.612Z,26.63
2017-08-04T08:22:21.314Z,26.59
2017-08-04T08:23:21.345Z,26.71
2017-08-04T08:24:21.684Z,26.63
2017-08-04T08:25:21.395Z,26.73
2017-08-04T08:26:21.743Z,26.77
2017-08-04T08:27:21.802Z,26.71
2017-08-04T08:28:21.802Z,26.84
2017-08-04T08:29:21.823Z,26.8
2017-08-04T08:30:21.854Z,26.75
2017-08-04T08:31:21.882Z,26.83
2017-08-04T08:32:21.598Z,26.84
2017-08-04T08:33:21.934Z,26.8
2017-08-04T08:34:21.963Z,26.84
2017-08-04T08:35:21.989Z,26.88
2017-08-04T08:36:22.018Z,26.88
2017-08-04T08:37:22.049Z,26.92
2017-08-04T08:38:22.076Z,26.92
2017-08-04T08:39:22.104Z,26.92
2017-08-04T08:40:22.131Z,26.96
2017-08-04T08:41:22.154Z,27.02
2017-08-04T08:42:22.181Z,26.99
2017-08-04T08:43:22.217Z,27.03
2017-08-04T08:44:22.247Z,27.03
2017-08-04T08:45:21.950Z,27.03
2017-08-04T08:46:22.294Z,27
2017-08-04T08:47:22.325Z,27.08
2017-08-04T08:48:22.355Z,27.14
2017-08-04T08:49:22.067Z,27.12
2017-08-04T08:50:22.410Z,27.12
2017-08-04T08:51:22.131Z,27.15
2017-08-04T08:52:22.468Z,27.17
2017-08-04T08:53:22.491Z,27.18
2017-08-04T08:54:22.519Z,27.25
2017-08-04T08:55:22.550Z,27.27
2017-08-04T08:56:22.256Z,27.3
2017-08-04T08:57:22.293Z,27.27
2017-08-04T08:58:22.630Z,27.29
2017-08-04T08:59:22.374Z,27.27
2017-08-04T09:00:22.754Z,27.37
2017-08-04T09:01:22.714Z,27.47
2017-08-04T09:02:22.745Z,27.49
2017-08-04T09:03:22.453Z,27.47
2017-08-04T09:04:22.887Z,27.52
2017-08-04T09:05:22.896Z,27.58
2017-08-04T09:06:22.536Z,27.59
2017-08-04T09:07:22.970Z,27.7
2017-08-04T09:08:22.593Z,27.73
2017-08-04T09:09:22.942Z,27.89
2017-08-04T09:10:22.780Z,27.93
2017-08-04T09:11:22.994Z,27.95
2017-08-04T09:12:23.146Z,28.04
2017-08-04T09:13:23.156Z,28.04
2017-08-04T09:14:22.765Z,28.01
2017-08-04T09:15:23.113Z,28.04
2017-08-04T09:16:23.324Z,28.12
2017-08-04T09:17:23.295Z,28.2
2017-08-04T09:18:23.333Z,28.29
2017-08-04T09:19:23.333Z,28.22
2017-08-04T09:20:23.254Z,28.33
2017-08-04T09:21:23.014Z,28.35
2017-08-04T09:22:22.988Z,28.35
2017-08-04T09:23:23.017Z,28.41
2017-08-04T09:24:23.091Z,28.39
2017-08-04T09:25:22.755Z,28.45
2017-08-04T09:26:23.421Z,28.48
2017-08-04T09:27:23.453Z,28.52
2017-08-04T09:28:23.477Z,28.59
2017-08-04T09:29:23.504Z,28.62
2017-08-04T09:30:23.237Z,28.67
2017-08-04T09:31:23.563Z,28.63
2017-08-04T09:32:23.593Z,28.78
2017-08-04T09:33:23.622Z,28.76
2017-08-04T09:34:23.651Z,28.79
2017-08-04T09:35:23.677Z,28.79
2017-08-04T09:36:23.715Z,28.88
2017-08-04T09:37:23.417Z,28.98
2017-08-04T09:38:23.766Z,29.01
2017-08-04T09:39:23.796Z,29.05
2017-08-04T09:40:23.823Z,29.08
2017-08-04T09:41:23.536Z,29.14
2017-08-04T09:42:23.887Z,29.31
2017-08-04T09:43:23.905Z,29.27
2017-08-04T09:44:24.092Z,29.29
2017-08-04T09:45:23.656Z,29.35
2017-08-04T09:46:23.683Z,29.41
2017-08-04T09:47:24.025Z,29.38
2017-08-04T09:48:23.956Z,29.44
2017-08-04T09:49:24.089Z,29.42
2017-08-04T09:50:24.112Z,29.41
2017-08-04T09:51:24.141Z,29.44
2017-08-04T09:52:24.172Z,29.44
2017-08-04T09:53:23.883Z,29.41
2017-08-04T09:54:23.916Z,29.5
2017-08-04T09:55:24.379Z,29.45
2017-08-04T09:56:24.285Z,29.49
2017-08-04T09:57:24.318Z,29.54
2017-08-04T09:58:24.030Z,29.47
2017-08-04T09:59:24.064Z,29.49
2017-08-04T10:00:24.407Z,29.49
2017-08-04T10:01:24.434Z,29.57
2017-08-04T10:02:24.462Z,29.53
2017-08-04T10:03:24.495Z,29.54
2017-08-04T10:04:24.530Z,29.51
2017-08-04T10:05:24.554Z,29.56
2017-08-04T10:06:24.584Z,29.61
2017-08-04T10:07:24.307Z,29.56
2017-08-04T10:08:24.637Z,29.63
2017-08-04T10:09:24.678Z,29.54
2017-08-04T10:10:24.698Z,29.56
2017-08-04T10:11:24.416Z,29.56
2017-08-04T10:12:24.443Z,29.42
2017-08-04T10:13:24.785Z,29.54
2017-08-04T10:14:24.824Z,29.54
2017-08-04T10:15:24.843Z,29.51
2017-08-04T10:16:24.874Z,29.53
2017-08-04T10:17:24.584Z,29.42
2017-08-04T10:18:24.938Z,29.44
2017-08-04T10:19:24.975Z,29.47
2017-08-04T10:20:25.004Z,29.44
2017-08-04T10:21:25.025Z,29.36
2017-08-04T10:22:25.050Z,29.35
2017-08-04T10:23:25.077Z,29.38
2017-08-04T10:24:25.113Z,29.38
2017-08-04T10:25:25.147Z,29.36
2017-08-04T10:26:25.169Z,29.41
2017-08-04T10:27:25.200Z,29.35
2017-08-04T10:28:25.226Z,29.49
2017-08-04T10:29:25.266Z,29.45
2017-08-04T10:30:25.282Z,29.53
2017-08-04T10:31:24.998Z,29.42
2017-08-04T10:32:25.347Z,29.56
2017-08-04T10:33:25.057Z,29.51
2017-08-04T10:34:25.409Z,29.49
2017-08-04T10:35:25.121Z,29.6
2017-08-04T10:36:25.464Z,29.5
2017-08-04T10:37:25.176Z,29.56
2017-08-04T10:38:25.529Z,29.57
2017-08-04T10:39:25.236Z,29.57
2017-08-04T10:40:25.582Z,29.65
2017-08-04T10:41:25.306Z,29.66
2017-08-04T10:42:25.654Z,29.68
2017-08-04T10:43:25.671Z,29.65
2017-08-04T10:44:25.715Z,29.73
2017-08-04T10:45:25.731Z,29.71
2017-08-04T10:46:25.447Z,29.75
2017-08-04T10:47:25.791Z,29.75
2017-08-04T10:48:25.824Z,29.72
2017-08-04T10:49:25.853Z,29.72
2017-08-04T10:50:25.885Z,29.75
2017-08-04T10:51:26.212Z,29.69
2017-08-04T10:52:25.624Z,29.72
2017-08-04T10:53:25.966Z,29.73
2017-08-04T10:54:26.003Z,29.76
2017-08-04T10:55:26.032Z,29.78
2017-08-04T10:56:26.055Z,29.87
2017-08-04T10:57:26.087Z,29.9
2017-08-04T10:58:25.799Z,29.86
2017-08-04T10:59:26.146Z,29.82
2017-08-04T11:00:26.180Z,29.9
2017-08-04T11:01:26.213Z,29.88
2017-08-04T11:02:26.238Z,29.94
2017-08-04T11:03:26.267Z,29.9
2017-08-04T11:04:26.295Z,29.87
2017-08-04T11:05:26.330Z,29.87
2017-08-04T11:06:26.363Z,29.91
2017-08-04T11:07:26.387Z,29.87
2017-08-04T11:08:26.424Z,29.95
2017-08-04T11:09:26.445Z,29.97
2017-08-04T11:10:26.505Z,29.94
2017-08-04T11:11:26.518Z,29.97
2017-08-04T11:12:26.537Z,29.98
2017-08-04T11:13:26.563Z,30.02
2017-08-04T11:14:26.281Z,29.94
2017-08-04T11:15:26.625Z,29.98
2017-08-04T11:16:26.655Z,30.06
2017-08-04T11:17:26.683Z,30.09
2017-08-04T11:18:26.089Z,30.15
2017-08-04T11:19:26.743Z,30.16
2017-08-04T11:20:26.773Z,30.25
2017-08-04T11:21:26.804Z,30.35
2017-08-04T11:22:26.518Z,30.35
2017-08-04T11:23:26.866Z,30.43
2017-08-04T11:24:26.898Z,30.46
2017-08-04T11:25:26.929Z,30.55
2017-08-04T11:26:26.957Z,30.54
2017-08-04T11:27:26.669Z,30.57
2017-08-04T11:28:27.018Z,30.68
2017-08-04T11:29:27.050Z,30.65
2017-08-04T11:30:27.118Z,30.7
2017-08-04T11:31:26.801Z,30.77
2017-08-04T11:32:27.143Z,30.75
2017-08-04T11:33:26.853Z,30.77
2017-08-04T11:34:27.205Z,30.77
2017-08-04T11:35:27.228Z,30.7
2017-08-04T11:36:27.258Z,30.75
2017-08-04T11:37:27.423Z,30.78
2017-08-04T11:38:27.325Z,30.78
2017-08-04T11:39:27.356Z,30.81
2017-08-04T11:40:27.381Z,30.83
2017-08-04T11:41:27.409Z,30.84
2017-08-04T11:42:27.442Z,31
2017-08-04T11:43:27.486Z,31.09
2017-08-04T11:44:27.557Z,31.09
2017-08-04T11:45:27.544Z,31.2
2017-08-04T11:46:27.616Z,31.28
2017-08-04T11:47:27.279Z,31.28
2017-08-04T11:48:27.633Z,31.4
2017-08-04T11:49:27.658Z,31.44
2017-08-04T11:50:27.372Z,31.43
2017-08-04T11:51:27.717Z,31.36
2017-08-04T11:52:27.753Z,31.42
2017-08-04T11:53:27.783Z,31.47
2017-08-04T11:54:27.699Z,31.52
2017-08-04T11:55:27.857Z,31.64
2017-08-04T11:56:27.869Z,31.69
2017-08-04T11:57:27.900Z,31.73
2017-08-04T11:58:27.623Z,31.73
2017-08-04T11:59:27.964Z,31.77
2017-08-04T12:00:27.839Z,31.84
2017-08-04T12:01:28.023Z,31.84
2017-08-04T12:02:27.738Z,31.93
2017-08-04T12:03:28.086Z,31.87
2017-08-04T12:04:28.236Z,32.07
2017-08-04T12:05:28.149Z,32.11
2017-08-04T12:06:27.888Z,32.23
2017-08-04T12:07:28.207Z,32.26
2017-08-04T12:08:28.044Z,32.4
2017-08-04T12:09:28.270Z,32.45
2017-08-04T12:10:27.687Z,32.65
2017-08-04T12:11:28.337Z,32.7
2017-08-04T12:12:28.047Z,32.8
2017-08-04T12:13:28.396Z,32.8
2017-08-04T12:14:28.108Z,32.96
2017-08-04T12:15:28.138Z,33.02
2017-08-04T12:16:28.492Z,33.02
2017-08-04T12:17:28.522Z,33
2017-08-04T12:18:27.918Z,33
2017-08-04T12:19:28.268Z,32.96
2017-08-04T12:20:28.623Z,32.93
2017-08-04T12:21:28.333Z,32.97
2017-08-04T12:22:28.692Z,32.96
2017-08-04T12:23:28.396Z,32.92
2017-08-04T12:24:28.748Z,32.87
2017-08-04T12:25:28.454Z,32.9
2017-08-04T12:26:28.813Z,32.85
2017-08-04T12:27:28.906Z,32.86
2017-08-04T12:28:28.882Z,32.86
2017-08-04T12:29:28.979Z,32.89
2017-08-04T12:30:28.933Z,32.83
2017-08-04T12:31:29.083Z,32.9
2017-08-04T12:32:28.990Z,32.75
2017-08-04T12:33:29.022Z,32.85
2017-08-04T12:34:29.054Z,32.9
2017-08-04T12:35:29.087Z,32.87
2017-08-04T12:36:29.159Z,32.93
2017-08-04T12:37:29.277Z,32.97
2017-08-04T12:38:28.663Z,33.08
2017-08-04T12:39:29.215Z,33.14
2017-08-04T12:40:29.247Z,33.23
2017-08-04T12:41:28.961Z,33.3
2017-08-04T12:42:28.990Z,33.36
2017-08-04T12:43:29.347Z,33.42
2017-08-04T12:44:29.377Z,33.49
2017-08-04T12:45:29.404Z,33.46
2017-08-04T12:46:29.440Z,33.47
2017-08-04T12:47:29.158Z,33.57
2017-08-04T12:48:29.183Z,33.53
2017-08-04T12:49:29.532Z,33.64
2017-08-04T12:50:29.696Z,33.71
2017-08-04T12:51:29.597Z,33.84
2017-08-04T12:52:29.629Z,33.87
2017-08-04T12:53:29.674Z,33.94
2017-08-04T12:54:29.379Z,33.94
2017-08-04T12:55:29.728Z,33.95